Time;durP1;ratioP1;P1;durP2;ratioP2;P2;SDS_P1;SDS_P2;PMS_P1;PMS_P2;Temp;Humidity;BMP_temperature;BMP_pressure;BME280_temperature;BME280_humidity;BME280_pressure;Samples;Min_cycle;Max_cycle;Signal;HPM_P1;HPM_P2
2022/07/06 00:01:29;;;;;;;;;;;12.20;99.90;;;;;;5032046;28;19917;-77
2022/07/06 00:03:54;;;;;;;;;;;12.20;99.90;;;;;;5033540;28;19924;-77
2022/07/06 00:06:20;;;;;;;;;;;12.10;99.90;;;;;;5034023;28;19967;-77
2022/07/06 00:08:45;;;;;;;;;;;12.10;99.90;;;;;;5032204;28;19929;-77
2022/07/06 00:11:12;;;;;;;;;;;12.10;99.90;;;;;;5034176;28;19967;-77
2022/07/06 00:13:38;;;;;;;;;;;12.10;99.90;;;;;;5046705;28;19917;-77
2022/07/06 00:16:04;;;;;;;;;;;12.10;99.90;;;;;;5031460;28;19917;-77
2022/07/06 00:18:29;;;;;;;;;;;12.10;99.90;;;;;;5027143;28;19968;-76
2022/07/06 00:20:55;;;;;;;;;;;12.10;99.90;;;;;;5028022;28;19931;-77
2022/07/06 00:23:21;;;;;;;;;;;12.00;99.90;;;;;;5025387;28;19913;-77
2022/07/06 00:25:48;;;;;;;;;;;12.00;99.90;;;;;;5027921;28;19967;-77
2022/07/06 00:28:14;;;;;;;;;;;12.00;99.90;;;;;;5027062;28;20324;-77
2022/07/06 00:30:39;;;;;;;;;;;12.00;99.90;;;;;;5028296;28;19921;-77
2022/07/06 00:33:05;;;;;;;;;;;11.90;99.90;;;;;;5030009;28;19913;-78
2022/07/06 00:35:30;;;;;;;;;;;11.90;99.90;;;;;;5027602;28;19928;-77
2022/07/06 00:37:56;;;;;;;;;;;11.90;99.90;;;;;;5024639;28;19939;-77
2022/07/06 00:40:21;;;;;;;;;;;11.90;99.90;;;;;;5029962;28;19917;-77
2022/07/06 00:42:48;;;;;;;;;;;11.80;99.90;;;;;;5031676;28;19921;-77
2022/07/06 00:45:14;;;;;;;;;;;11.80;99.90;;;;;;5031416;28;19921;-78
2022/07/06 00:47:40;;;;;;;;;;;11.90;99.90;;;;;;5031420;28;19921;-77
2022/07/06 00:50:15;;;;;;;;;;;11.90;99.90;;;;;;5036894;28;19939;-77
2022/07/06 00:52:50;;;;;;;;;;;11.90;99.90;;;;;;5035960;28;20244;-76
2022/07/06 00:55:18;;;;;;;;;;;11.90;99.90;;;;;;5066998;28;19932;-77
2022/07/06 00:57:44;;;;;;;;;;;11.80;99.90;;;;;;5034942;28;19913;-77
2022/07/06 01:00:11;;;;;;;;;;;11.80;99.90;;;;;;5033682;28;19986;-76
2022/07/06 01:02:36;;;;;;;;;;;11.90;99.90;;;;;;5035624;28;19932;-76
2022/07/06 01:05:06;;;;;;;;;;;11.80;99.90;;;;;;5033296;28;19913;-77
2022/07/06 01:07:31;;;;;;;;;;;11.90;99.90;;;;;;5032038;28;20015;-77
2022/07/06 01:09:57;;;;;;;;;;;11.90;99.90;;;;;;5034258;28;20013;-77
2022/07/06 01:12:23;;;;;;;;;;;11.90;99.90;;;;;;5032403;28;20225;-78
2022/07/06 01:14:49;;;;;;;;;;;11.90;99.90;;;;;;5037755;28;20363;-77
2022/07/06 01:17:15;;;;;;;;;;;11.90;99.90;;;;;;5037205;28;19966;-77
2022/07/06 01:19:40;;;;;;;;;;;11.90;99.90;;;;;;5031829;28;19913;-77
2022/07/06 01:22:06;;;;;;;;;;;11.80;99.90;;;;;;5034169;28;20323;-77
2022/07/06 01:24:34;;;;;;;;;;;11.80;99.90;;;;;;5029856;28;19988;-77
2022/07/06 01:27:00;;;;;;;;;;;11.80;99.90;;;;;;5028797;28;19921;-76
2022/07/06 01:29:26;;;;;;;;;;;11.80;99.90;;;;;;5029964;28;20313;-78
2022/07/06 01:31:51;;;;;;;;;;;11.80;99.90;;;;;;5029854;28;20623;-77
2022/07/06 01:34:17;;;;;;;;;;;11.80;99.90;;;;;;5028205;28;19928;-78
2022/07/06 01:36:43;;;;;;;;;;;11.80;99.90;;;;;;5029733;28;19924;-77
2022/07/06 01:39:09;;;;;;;;;;;11.80;99.90;;;;;;5028291;28;19917;-77
2022/07/06 01:41:35;;;;;;;;;;;11.90;99.90;;;;;;5026610;28;19917;-77
2022/07/06 01:44:00;;;;;;;;;;;12.00;99.90;;;;;;5029355;28;20004;-77
2022/07/06 01:46:26;;;;;;;;;;;12.00;99.90;;;;;;5028340;28;19924;-78
2022/07/06 01:48:52;;;;;;;;;;;12.10;99.90;;;;;;5028404;28;19924;-78
2022/07/06 01:51:17;;;;;;;;;;;12.20;99.90;;;;;;5034107;28;20320;-78
2022/07/06 01:53:43;;;;;;;;;;;12.20;99.90;;;;;;5026549;28;19913;-78
2022/07/06 01:56:08;;;;;;;;;;;12.30;99.90;;;;;;5032796;28;19913;-78
2022/07/06 01:58:34;;;;;;;;;;;12.30;99.90;;;;;;5035675;28;19945;-78
2022/07/06 02:01:00;;;;;;;;;;;12.30;99.90;;;;;;5025266;28;20040;-77
2022/07/06 02:03:26;;;;;;;;;;;12.30;99.90;;;;;;5030433;28;19913;-77
2022/07/06 02:05:51;;;;;;;;;;;12.40;99.90;;;;;;5030423;28;19927;-77
2022/07/06 02:08:17;;;;;;;;;;;12.40;99.90;;;;;;5029736;28;19925;-78
2022/07/06 02:10:42;;;;;;;;;;;12.40;99.90;;;;;;5029492;28;19921;-78
2022/07/06 02:13:08;;;;;;;;;;;12.50;99.90;;;;;;5028543;28;19928;-77
2022/07/06 02:15:34;;;;;;;;;;;12.50;99.90;;;;;;5028582;28;19917;-74
2022/07/06 02:17:59;;;;;;;;;;;12.60;99.90;;;;;;5029816;28;19979;-77
2022/07/06 02:20:25;;;;;;;;;;;12.60;99.90;;;;;;5029158;28;19920;-77
2022/07/06 02:22:50;;;;;;;;;;;12.60;99.90;;;;;;5030015;28;20658;-77
2022/07/06 02:25:16;;;;;;;;;;;12.70;99.90;;;;;;5033434;28;19944;-77
2022/07/06 02:27:42;;;;;;;;;;;12.70;99.90;;;;;;5029595;28;19917;-78
2022/07/06 02:30:07;;;;;;;;;;;12.70;99.90;;;;;;5027305;28;19921;-77
2022/07/06 02:32:33;;;;;;;;;;;12.80;99.90;;;;;;5027694;28;19928;-77
2022/07/06 02:34:58;;;;;;;;;;;12.80;99.90;;;;;;5029276;28;19917;-77
2022/07/06 02:37:24;;;;;;;;;;;12.80;99.90;;;;;;5025353;28;20047;-78
2022/07/06 02:39:50;;;;;;;;;;;12.80;99.90;;;;;;5028521;28;21141;-77
2022/07/06 02:42:15;;;;;;;;;;;12.90;99.90;;;;;;5026428;28;19921;-76
2022/07/06 02:44:41;;;;;;;;;;;12.80;99.90;;;;;;5030496;28;20562;-77
2022/07/06 02:47:06;;;;;;;;;;;12.80;99.90;;;;;;5028294;28;20265;-77
2022/07/06 02:49:32;;;;;;;;;;;12.80;99.90;;;;;;5032553;28;19925;-77
2022/07/06 02:51:58;;;;;;;;;;;12.90;99.90;;;;;;5031348;28;19971;-77
2022/07/06 02:54:23;;;;;;;;;;;12.80;99.90;;;;;;5033594;28;19913;-76
2022/07/06 02:56:52;;;;;;;;;;;12.80;99.90;;;;;;5031584;28;19925;-77
2022/07/06 02:59:18;;;;;;;;;;;12.70;99.90;;;;;;5030104;28;19917;-77
2022/07/06 03:01:44;;;;;;;;;;;12.70;99.90;;;;;;5031711;28;19932;-77
2022/07/06 03:04:09;;;;;;;;;;;12.70;99.90;;;;;;5031772;28;19913;-78
2022/07/06 03:06:35;;;;;;;;;;;12.70;99.90;;;;;;5033412;28;20015;-77
2022/07/06 03:09:01;;;;;;;;;;;12.60;99.90;;;;;;5032500;28;20011;-78
2022/07/06 03:11:27;;;;;;;;;;;12.60;99.90;;;;;;5027366;28;19913;-77
2022/07/06 03:13:52;;;;;;;;;;;12.60;99.90;;;;;;5032876;28;19923;-77
2022/07/06 03:16:18;;;;;;;;;;;12.50;99.90;;;;;;5031677;28;20004;-77
2022/07/06 03:18:43;;;;;;;;;;;12.50;99.90;;;;;;5030744;28;19928;-76
2022/07/06 03:21:09;;;;;;;;;;;12.50;99.90;;;;;;5028047;28;19932;-77
2022/07/06 03:23:34;;;;;;;;;;;12.40;99.90;;;;;;5035532;28;19913;-77
2022/07/06 03:26:00;;;;;;;;;;;12.40;99.90;;;;;;5036340;28;20239;-77
2022/07/06 03:28:26;;;;;;;;;;;12.40;99.90;;;;;;5065415;28;19913;-77
2022/07/06 03:30:51;;;;;;;;;;;12.40;99.90;;;;;;5029595;28;19956;-77
2022/07/06 03:33:17;;;;;;;;;;;12.50;99.90;;;;;;5031827;28;20037;-77
2022/07/06 03:35:42;;;;;;;;;;;12.50;99.90;;;;;;5032785;28;20007;-77
2022/07/06 03:38:08;;;;;;;;;;;12.50;99.90;;;;;;5032080;28;19913;-77
2022/07/06 03:40:33;;;;;;;;;;;12.60;99.90;;;;;;5031932;28;20244;-77
2022/07/06 03:42:59;;;;;;;;;;;12.60;99.90;;;;;;5031563;28;20388;-76
2022/07/06 03:45:25;;;;;;;;;;;12.70;99.90;;;;;;5034857;28;19913;-77
2022/07/06 03:47:50;;;;;;;;;;;12.70;99.90;;;;;;5032437;28;20279;-76
2022/07/06 03:50:16;;;;;;;;;;;12.80;99.90;;;;;;5033115;28;19919;-77
2022/07/06 03:52:41;;;;;;;;;;;12.80;99.90;;;;;;5033503;28;19913;-77
2022/07/06 03:55:10;;;;;;;;;;;12.90;99.90;;;;;;5031102;28;19921;-78
2022/07/06 03:57:37;;;;;;;;;;;13.00;99.90;;;;;;5030388;28;19909;-78
2022/07/06 04:00:03;;;;;;;;;;;13.00;99.90;;;;;;5030518;28;19921;-78
2022/07/06 04:02:28;;;;;;;;;;;13.00;99.90;;;;;;5060504;28;19921;-78
2022/07/06 04:04:54;;;;;;;;;;;13.00;99.90;;;;;;5031625;28;20193;-78
2022/07/06 04:07:19;;;;;;;;;;;13.10;99.90;;;;;;5032704;28;19924;-77
2022/07/06 04:09:45;;;;;;;;;;;13.10;99.90;;;;;;5065814;28;19948;-78
2022/07/06 04:12:11;;;;;;;;;;;13.10;99.90;;;;;;5034338;28;19927;-77
2022/07/06 04:14:36;;;;;;;;;;;13.10;99.90;;;;;;5033548;28;20046;-77
2022/07/06 04:19:46;;;;;;;;;;;13.10;99.90;;;;;;5033677;28;19959;-78
2022/07/06 04:22:12;;;;;;;;;;;13.10;99.90;;;;;;5034896;28;19956;-77
2022/07/06 04:24:37;;;;;;;;;;;13.10;99.90;;;;;;5031801;28;19917;-77
2022/07/06 04:27:03;;;;;;;;;;;13.10;99.90;;;;;;5032523;28;19956;-79
2022/07/06 04:29:28;;;;;;;;;;;13.20;99.90;;;;;;5032923;28;19917;-77
2022/07/06 04:31:54;;;;;;;;;;;13.20;99.90;;;;;;5032214;28;19917;-77
2022/07/06 04:34:20;;;;;;;;;;;13.20;99.90;;;;;;5034001;28;19920;-78
2022/07/06 04:36:45;;;;;;;;;;;13.20;99.90;;;;;;5033906;28;19920;-79
2022/07/06 04:39:11;;;;;;;;;;;13.30;99.90;;;;;;5032824;28;20255;-77
2022/07/06 04:41:36;;;;;;;;;;;13.30;99.90;;;;;;5031704;28;20328;-77
2022/07/06 04:44:02;;;;;;;;;;;13.30;99.90;;;;;;5030269;28;19917;-77
2022/07/06 04:46:27;;;;;;;;;;;13.40;99.90;;;;;;5031936;28;20304;-78
2022/07/06 04:48:53;;;;;;;;;;;13.50;99.90;;;;;;5023580;28;19932;-78
2022/07/06 04:51:18;;;;;;;;;;;13.60;99.90;;;;;;5028894;28;20395;-78
2022/07/06 04:53:45;;;;;;;;;;;13.70;99.90;;;;;;5033931;28;20347;-78
2022/07/06 04:56:11;;;;;;;;;;;13.80;99.90;;;;;;5029606;28;20003;-78
2022/07/06 04:58:36;;;;;;;;;;;13.90;99.90;;;;;;5032173;28;20001;-78
2022/07/06 05:01:02;;;;;;;;;;;14.00;99.90;;;;;;5032870;28;19983;-78
2022/07/06 05:03:27;;;;;;;;;;;14.10;99.90;;;;;;5030429;28;19917;-77
2022/07/06 05:05:53;;;;;;;;;;;14.20;99.90;;;;;;5032189;28;19914;-77
2022/07/06 05:08:18;;;;;;;;;;;14.30;99.90;;;;;;5033900;28;19927;-77
2022/07/06 05:10:44;;;;;;;;;;;14.30;99.90;;;;;;5033517;28;19917;-77
2022/07/06 05:13:09;;;;;;;;;;;14.40;99.90;;;;;;5031523;28;19929;-78
2022/07/06 05:15:35;;;;;;;;;;;14.40;99.90;;;;;;5032410;28;19913;-77
2022/07/06 05:18:00;;;;;;;;;;;14.50;99.90;;;;;;5031927;28;19913;-78
2022/07/06 05:20:26;;;;;;;;;;;14.40;99.90;;;;;;5031516;28;19917;-77
2022/07/06 05:22:52;;;;;;;;;;;14.60;99.90;;;;;;5032280;28;19925;-75
2022/07/06 05:25:17;;;;;;;;;;;14.70;99.90;;;;;;5030928;28;19917;-80
2022/07/06 05:27:43;;;;;;;;;;;14.90;99.90;;;;;;5033379;28;19917;-75
2022/07/06 05:30:09;;;;;;;;;;;14.90;99.90;;;;;;5033152;28;19956;-78
2022/07/06 05:32:34;;;;;;;;;;;14.90;99.90;;;;;;5032808;28;19917;-79
2022/07/06 05:35:00;;;;;;;;;;;14.90;99.90;;;;;;5024390;28;19920;-75
2022/07/06 05:37:25;;;;;;;;;;;15.00;99.90;;;;;;5036617;28;19913;-76
2022/07/06 05:39:51;;;;;;;;;;;15.00;99.90;;;;;;5035299;28;19917;-77
2022/07/06 05:42:16;;;;;;;;;;;15.00;99.90;;;;;;5035663;28;19913;-76
2022/07/06 05:44:42;;;;;;;;;;;15.10;99.90;;;;;;5034430;28;20055;-76
2022/07/06 05:52:36;;;;;;;;;;;15.30;99.90;;;;;;5036154;28;19939;-77
2022/07/06 05:55:02;;;;;;;;;;;15.20;99.90;;;;;;5033756;28;19916;-77
2022/07/06 05:57:27;;;;;;;;;;;15.20;99.90;;;;;;5034643;28;20321;-79
2022/07/06 05:59:53;;;;;;;;;;;15.20;99.90;;;;;;5033302;28;20375;-77
2022/07/06 06:02:18;;;;;;;;;;;15.20;99.90;;;;;;5034212;28;19924;-77
2022/07/06 06:04:44;;;;;;;;;;;15.20;99.90;;;;;;5035936;28;19924;-77
2022/07/06 06:07:10;;;;;;;;;;;15.10;99.90;;;;;;5035243;28;19962;-77
2022/07/06 06:09:35;;;;;;;;;;;15.10;99.90;;;;;;5035712;28;19940;-77
2022/07/06 06:12:01;;;;;;;;;;;15.10;99.90;;;;;;5034486;28;20020;-77
2022/07/06 06:14:26;;;;;;;;;;;15.30;99.90;;;;;;5034800;28;20316;-77
2022/07/06 06:16:52;;;;;;;;;;;15.30;99.90;;;;;;5034022;28;19913;-77
2022/07/06 06:19:17;;;;;;;;;;;15.30;99.90;;;;;;5034588;28;20350;-78
2022/07/06 06:21:43;;;;;;;;;;;15.40;99.90;;;;;;5034757;28;19921;-77
2022/07/06 06:24:09;;;;;;;;;;;15.40;99.90;;;;;;5035094;28;19921;-78
2022/07/06 06:26:34;;;;;;;;;;;15.50;99.90;;;;;;5034137;28;19963;-77
2022/07/06 06:29:00;;;;;;;;;;;15.60;99.90;;;;;;5066857;28;19917;-78
2022/07/06 06:31:25;;;;;;;;;;;15.60;99.90;;;;;;5034596;28;20308;-77
2022/07/06 06:33:52;;;;;;;;;;;15.70;99.90;;;;;;5034826;28;20197;-77
2022/07/06 06:36:18;;;;;;;;;;;15.70;99.90;;;;;;5026922;28;20024;-77
2022/07/06 06:38:44;;;;;;;;;;;15.80;99.90;;;;;;5034268;28;20317;-77
2022/07/06 06:41:09;;;;;;;;;;;15.80;99.90;;;;;;5034806;28;20265;-76
2022/07/06 06:43:35;;;;;;;;;;;15.90;99.90;;;;;;5034450;28;19921;-76
2022/07/06 06:46:00;;;;;;;;;;;15.80;99.90;;;;;;5023836;28;19963;-76
2022/07/06 06:48:26;;;;;;;;;;;15.90;99.90;;;;;;5034322;28;20300;-76
2022/07/06 06:50:51;;;;;;;;;;;15.80;99.90;;;;;;5016431;28;20301;-76
2022/07/06 06:53:17;;;;;;;;;;;16.00;99.90;;;;;;5034470;28;19921;-78
2022/07/06 06:55:42;;;;;;;;;;;16.00;99.90;;;;;;5034398;28;19913;-76
2022/07/06 06:58:08;;;;;;;;;;;16.00;99.90;;;;;;5031727;28;19916;-74
2022/07/06 07:00:34;;;;;;;;;;;16.10;99.90;;;;;;5033752;28;19967;-80
2022/07/06 07:02:59;;;;;;;;;;;16.10;99.90;;;;;;5035051;28;19956;-78
2022/07/06 07:05:25;;;;;;;;;;;16.20;99.90;;;;;;5033787;28;19920;-78
2022/07/06 07:07:50;;;;;;;;;;;16.10;99.90;;;;;;5016555;28;20008;-76
2022/07/06 07:10:16;;;;;;;;;;;16.10;99.90;;;;;;5033701;28;19920;-77
2022/07/06 07:12:42;;;;;;;;;;;16.10;99.90;;;;;;5033305;28;19943;-78
2022/07/06 07:15:08;;;;;;;;;;;16.20;99.90;;;;;;5034114;28;20375;-78
2022/07/06 07:17:33;;;;;;;;;;;16.30;99.90;;;;;;5033637;28;19913;-77
2022/07/06 07:19:59;;;;;;;;;;;16.30;99.90;;;;;;5033678;28;20031;-76
2022/07/06 07:22:24;;;;;;;;;;;16.40;99.90;;;;;;5033814;28;20039;-80
2022/07/06 07:24:50;;;;;;;;;;;16.50;99.90;;;;;;5033646;28;19914;-76
2022/07/06 07:27:15;;;;;;;;;;;16.60;99.90;;;;;;5033243;28;19913;-74
2022/07/06 07:29:41;;;;;;;;;;;16.50;99.90;;;;;;5034312;28;19917;-78
2022/07/06 07:32:06;;;;;;;;;;;16.50;99.90;;;;;;5032749;28;19912;-76
2022/07/06 07:34:32;;;;;;;;;;;16.60;99.90;;;;;;5032997;28;19913;-75
2022/07/06 07:36:57;;;;;;;;;;;16.70;99.90;;;;;;5032979;28;19921;-79
2022/07/06 07:39:23;;;;;;;;;;;16.90;99.90;;;;;;5034126;28;19917;-75
2022/07/06 07:41:50;;;;;;;;;;;16.80;99.90;;;;;;5032617;28;19924;-75
2022/07/06 07:44:16;;;;;;;;;;;16.90;99.90;;;;;;5024113;28;23851;-74
2022/07/06 07:46:41;;;;;;;;;;;17.00;99.90;;;;;;5033810;28;19959;-77
2022/07/06 07:49:07;;;;;;;;;;;17.30;99.90;;;;;;5032468;28;19917;-78
2022/07/06 07:51:33;;;;;;;;;;;17.50;99.90;;;;;;5032931;28;19944;-74
2022/07/06 07:53:58;;;;;;;;;;;17.50;99.90;;;;;;5024027;28;19913;-73
2022/07/06 07:56:24;;;;;;;;;;;17.40;99.90;;;;;;5032509;28;20248;-76
2022/07/06 07:58:49;;;;;;;;;;;17.30;99.90;;;;;;5030439;28;20292;-74
2022/07/06 08:01:15;;;;;;;;;;;17.10;99.90;;;;;;5032421;28;19917;-75
2022/07/06 08:03:40;;;;;;;;;;;17.00;99.90;;;;;;5032842;28;19913;-75
2022/07/06 08:06:06;;;;;;;;;;;17.10;99.90;;;;;;5034034;28;19924;-75
2022/07/06 08:08:31;;;;;;;;;;;17.40;99.90;;;;;;5033891;28;19940;-77
2022/07/06 08:10:57;;;;;;;;;;;17.50;99.90;;;;;;5040471;28;20324;-75
2022/07/06 08:13:23;;;;;;;;;;;17.30;99.90;;;;;;5029426;28;19921;-75
2022/07/06 08:15:48;;;;;;;;;;;17.40;99.90;;;;;;5030248;28;20052;-73
2022/07/06 08:18:14;;;;;;;;;;;17.70;99.90;;;;;;5032235;28;19924;-74
2022/07/06 08:20:39;;;;;;;;;;;18.20;99.90;;;;;;5032966;28;19924;-74
2022/07/06 08:23:05;;;;;;;;;;;18.40;99.90;;;;;;5031337;28;19985;-75
2022/07/06 08:25:32;;;;;;;;;;;19.00;99.90;;;;;;5027012;28;20284;-75
2022/07/06 08:27:57;;;;;;;;;;;19.30;99.90;;;;;;5036278;28;19957;-77
2022/07/06 08:30:23;;;;;;;;;;;19.40;99.90;;;;;;5031368;28;19972;-77
2022/07/06 08:32:48;;;;;;;;;;;19.40;99.90;;;;;;5028870;28;19920;-74
2022/07/06 08:35:14;;;;;;;;;;;19.80;98.90;;;;;;5033876;28;20059;-74
2022/07/06 08:37:39;;;;;;;;;;;19.90;98.90;;;;;;5033652;28;19936;-76
2022/07/06 08:40:05;;;;;;;;;;;19.80;99.90;;;;;;5033913;28;19913;-76
2022/07/06 08:42:32;;;;;;;;;;;20.00;99.90;;;;;;5032521;28;19913;-73
2022/07/06 08:45:02;;;;;;;;;;;19.90;99.70;;;;;;5034231;28;19916;-80
2022/07/06 08:47:28;;;;;;;;;;;19.70;99.90;;;;;;5031436;28;19932;-76
2022/07/06 08:49:54;;;;;;;;;;;19.30;99.90;;;;;;5032684;28;20363;-74
2022/07/06 08:52:20;;;;;;;;;;;19.20;99.80;;;;;;5032612;28;20000;-79
2022/07/06 08:54:46;;;;;;;;;;;18.90;99.30;;;;;;5030789;28;19914;-76
2022/07/06 08:57:12;;;;;;;;;;;19.00;99.90;;;;;;5032482;28;19910;-77
2022/07/06 08:59:38;;;;;;;;;;;19.40;99.70;;;;;;5031189;28;19909;-77
2022/07/06 09:02:04;;;;;;;;;;;19.60;99.80;;;;;;5025826;28;20255;-77
2022/07/06 09:04:32;;;;;;;;;;;20.10;99.90;;;;;;5028675;28;19917;-76
2022/07/06 09:06:57;;;;;;;;;;;20.10;98.10;;;;;;5028623;28;19917;-75
2022/07/06 09:09:23;;;;;;;;;;;20.40;98.30;;;;;;5034652;28;19919;-76
2022/07/06 09:11:49;;;;;;;;;;;20.50;99.00;;;;;;5033907;28;19925;-75
2022/07/06 09:14:15;;;;;;;;;;;19.70;98.90;;;;;;5031232;28;19910;-75
2022/07/06 09:16:40;;;;;;;;;;;19.50;99.00;;;;;;5033658;28;19913;-76
2022/07/06 09:19:07;;;;;;;;;;;19.50;99.00;;;;;;5034260;28;19954;-75
2022/07/06 09:21:32;;;;;;;;;;;19.80;98.80;;;;;;5033240;28;20027;-74
2022/07/06 09:23:59;;;;;;;;;;;19.90;96.40;;;;;;5038564;28;19963;-75
2022/07/06 09:26:25;;;;;;;;;;;19.90;97.70;;;;;;5030020;28;19974;-74
2022/07/06 09:28:51;;;;;;;;;;;19.90;96.60;;;;;;5036020;28;19917;-74
2022/07/06 09:31:16;;;;;;;;;;;19.80;97.00;;;;;;5026400;28;19928;-74
2022/07/06 09:33:59;;;;;;;;;;;19.70;97.30;;;;;;5036978;28;19913;-78
2022/07/06 09:36:47;;;;;;;;;;;19.30;97.70;;;;;;5035052;28;19917;-74
2022/07/06 09:39:16;;;;;;;;;;;19.10;98.70;;;;;;5036697;28;19913;-74
2022/07/06 09:41:41;;;;;;;;;;;19.40;99.90;;;;;;5036216;28;19913;-73
2022/07/06 09:44:07;;;;;;;;;;;19.60;98.80;;;;;;5035441;28;19921;-73
2022/07/06 09:46:42;;;;;;;;;;;19.90;99.90;;;;;;5034262;28;19971;-78
2022/07/06 09:49:08;;;;;;;;;;;19.90;99.90;;;;;;5034230;28;19924;-73
2022/07/06 09:51:37;;;;;;;;;;;19.70;96.30;;;;;;5036416;28;19917;-76
2022/07/06 09:54:10;;;;;;;;;;;19.70;98.90;;;;;;5034558;28;19917;-74
2022/07/06 09:56:39;;;;;;;;;;;19.80;98.80;;;;;;5033505;28;19917;-74
2022/07/06 09:59:11;;;;;;;;;;;20.60;99.60;;;;;;5034503;28;19917;-74
2022/07/06 10:01:37;;;;;;;;;;;21.10;96.70;;;;;;5031938;28;20004;-74
2022/07/06 10:04:03;;;;;;;;;;;21.30;97.40;;;;;;5035169;28;20016;-74
2022/07/06 10:06:29;;;;;;;;;;;21.60;99.00;;;;;;5035514;28;19990;-75
2022/07/06 10:08:54;;;;;;;;;;;21.70;97.40;;;;;;5034453;28;19921;-78
2022/07/06 10:11:21;;;;;;;;;;;21.60;96.80;;;;;;5035433;28;20004;-77
2022/07/06 10:13:48;;;;;;;;;;;22.00;97.70;;;;;;5035378;28;19924;-78
2022/07/06 10:16:14;;;;;;;;;;;22.50;95.40;;;;;;5033698;28;19913;-75
2022/07/06 10:18:41;;;;;;;;;;;22.60;95.60;;;;;;5035861;28;19916;-75
2022/07/06 10:21:06;;;;;;;;;;;22.60;94.70;;;;;;5035088;28;19921;-76
2022/07/06 10:23:34;;;;;;;;;;;23.10;95.90;;;;;;5034643;28;20260;-77
2022/07/06 10:26:01;;;;;;;;;;;23.30;97.50;;;;;;5035167;28;19924;-78
2022/07/06 10:28:27;;;;;;;;;;;23.60;96.20;;;;;;5034309;28;19928;-77
2022/07/06 10:30:53;;;;;;;;;;;23.90;93.60;;;;;;5023767;28;19913;-75
2022/07/06 10:33:19;;;;;;;;;;;23.90;93.70;;;;;;5034639;28;20024;-77
2022/07/06 10:35:45;;;;;;;;;;;24.20;92.00;;;;;;5033775;28;20323;-76
2022/07/06 10:38:11;;;;;;;;;;;23.50;94.10;;;;;;5019748;28;19913;-76
2022/07/06 10:43:31;;;;;;;;;;;24.10;94.90;;;;;;5033022;28;19966;-78
2022/07/06 10:45:57;;;;;;;;;;;24.50;92.90;;;;;;5036687;28;19913;-76
2022/07/06 10:48:23;;;;;;;;;;;24.20;92.80;;;;;;5031773;28;20305;-75
2022/07/06 10:50:50;;;;;;;;;;;23.40;91.10;;;;;;5031860;28;20003;-78
2022/07/06 10:53:17;;;;;;;;;;;23.40;91.70;;;;;;5023545;28;20364;-78
2022/07/06 10:55:47;;;;;;;;;;;23.50;92.60;;;;;;5031722;28;19921;-80
2022/07/06 10:58:13;;;;;;;;;;;23.40;90.60;;;;;;5030856;28;20245;-80
2022/07/06 11:00:57;;;;;;;;;;;23.00;91.80;;;;;;5026158;28;19914;-78
2022/07/06 11:03:36;;;;;;;;;;;23.50;90.60;;;;;;5022054;28;20283;-76
2022/07/06 11:06:10;;;;;;;;;;;23.70;91.80;;;;;;5011838;28;20047;-81
2022/07/06 11:08:54;;;;;;;;;;;24.10;92.70;;;;;;5016913;28;20323;-74
2022/07/06 11:11:21;;;;;;;;;;;24.30;92.40;;;;;;5048703;28;20300;-76
2022/07/06 11:13:49;;;;;;;;;;;24.20;91.00;;;;;;5024536;28;19929;-82
2022/07/06 11:16:16;;;;;;;;;;;23.90;88.70;;;;;;5017102;28;19953;-80
2022/07/06 11:18:45;;;;;;;;;;;23.90;93.20;;;;;;5025494;28;19919;-75
2022/07/06 11:21:17;;;;;;;;;;;24.00;92.90;;;;;;5026961;28;19917;-75
2022/07/06 11:23:42;;;;;;;;;;;24.40;93.60;;;;;;5029991;28;19923;-76
2022/07/06 11:26:09;;;;;;;;;;;24.70;93.70;;;;;;5028684;28;20311;-81
2022/07/06 11:28:35;;;;;;;;;;;24.80;91.60;;;;;;5024067;28;20012;-85
2022/07/06 11:31:01;;;;;;;;;;;25.10;91.00;;;;;;5022949;28;20370;-77
2022/07/06 11:33:30;;;;;;;;;;;25.70;91.90;;;;;;5027316;28;19917;-78
2022/07/06 11:36:31;;;;;;;;;;;25.80;91.90;;;;;;5025632;28;19922;-81
2022/07/06 11:38:56;;;;;;;;;;;25.90;93.80;;;;;;4986759;28;19961;-78
2022/07/06 11:41:22;;;;;;;;;;;25.60;92.80;;;;;;4985267;28;19926;-77
2022/07/06 11:43:50;;;;;;;;;;;25.10;91.30;;;;;;4970046;28;20305;-76
2022/07/06 11:46:25;;;;;;;;;;;24.80;92.50;;;;;;4986050;28;20373;-76
2022/07/06 11:48:52;;;;;;;;;;;24.50;91.00;;;;;;4987964;28;20336;-76
2022/07/06 11:51:18;;;;;;;;;;;24.70;95.00;;;;;;4983756;28;19918;-75
2022/07/06 11:53:44;;;;;;;;;;;24.80;94.00;;;;;;4985373;28;19917;-75
2022/07/06 11:56:10;;;;;;;;;;;25.20;92.20;;;;;;4987376;28;19926;-75
2022/07/06 11:58:35;;;;;;;;;;;25.30;91.90;;;;;;4968842;28;19922;-75
2022/07/06 12:01:05;;;;;;;;;;;25.00;91.10;;;;;;4974296;28;20423;-76
2022/07/06 12:03:32;;;;;;;;;;;25.00;93.90;;;;;;4965349;28;21472;-76
2022/07/06 12:05:58;;;;;;;;;;;24.20;90.90;;;;;;4970475;28;19917;-80
2022/07/06 12:08:24;;;;;;;;;;;24.00;94.80;;;;;;4977282;28;19930;-75
2022/07/06 12:10:49;;;;;;;;;;;24.30;94.10;;;;;;4985737;28;19979;-75
2022/07/06 12:13:15;;;;;;;;;;;24.50;91.70;;;;;;5002491;28;19925;-76
2022/07/06 12:15:40;;;;;;;;;;;24.60;93.40;;;;;;5028885;28;20343;-76
2022/07/06 12:18:06;;;;;;;;;;;24.70;93.40;;;;;;5027611;28;19917;-77
2022/07/06 12:20:32;;;;;;;;;;;24.90;92.90;;;;;;5028382;28;19970;-77
2022/07/06 12:23:01;;;;;;;;;;;24.90;93.70;;;;;;5008489;28;19956;-78
2022/07/06 12:25:30;;;;;;;;;;;24.80;93.40;;;;;;5028041;28;19924;-78
2022/07/06 12:27:56;;;;;;;;;;;24.70;92.90;;;;;;5027444;28;19967;-76
2022/07/06 12:30:22;;;;;;;;;;;24.20;92.50;;;;;;5025229;28;19951;-75
2022/07/06 12:33:07;;;;;;;;;;;23.60;94.60;;;;;;5028108;28;20359;-80
2022/07/06 12:35:33;;;;;;;;;;;23.70;92.60;;;;;;5022191;28;20216;-78
2022/07/06 12:38:00;;;;;;;;;;;23.60;93.50;;;;;;5055501;28;19917;-78
2022/07/06 12:40:29;;;;;;;;;;;23.50;94.00;;;;;;5026100;28;19924;-77
2022/07/06 12:42:55;;;;;;;;;;;23.30;92.80;;;;;;5025952;28;19928;-78
2022/07/06 12:45:25;;;;;;;;;;;23.40;93.00;;;;;;5031472;28;19917;-77
2022/07/06 12:47:58;;;;;;;;;;;23.50;92.50;;;;;;5030091;28;20224;-76
2022/07/06 12:50:31;;;;;;;;;;;23.70;92.50;;;;;;5027655;28;19917;-78
2022/07/06 12:52:56;;;;;;;;;;;23.80;95.80;;;;;;5028928;28;19918;-77
2022/07/06 12:55:25;;;;;;;;;;;23.90;95.50;;;;;;5032868;28;19917;-75
2022/07/06 12:57:51;;;;;;;;;;;24.00;95.40;;;;;;5030450;28;19940;-75
2022/07/06 13:00:17;;;;;;;;;;;24.00;92.90;;;;;;5028055;28;20386;-76
2022/07/06 13:02:48;;;;;;;;;;;23.90;95.80;;;;;;5029051;28;19917;-76
2022/07/06 13:05:14;;;;;;;;;;;23.70;94.00;;;;;;5030876;28;19924;-76
2022/07/06 13:07:47;;;;;;;;;;;23.90;93.90;;;;;;5027034;28;19939;-77
2022/07/06 13:10:13;;;;;;;;;;;24.00;91.70;;;;;;5031637;28;19921;-75
2022/07/06 13:12:39;;;;;;;;;;;23.50;92.50;;;;;;5030403;28;20363;-75
2022/07/06 13:15:05;;;;;;;;;;;23.20;93.00;;;;;;5032155;28;19921;-80
2022/07/06 13:17:31;;;;;;;;;;;23.10;92.50;;;;;;5028614;28;19928;-74
2022/07/06 13:19:56;;;;;;;;;;;22.80;93.00;;;;;;5030827;28;19921;-74
2022/07/06 13:22:22;;;;;;;;;;;22.70;92.70;;;;;;5021883;28;19917;-78
2022/07/06 13:24:48;;;;;;;;;;;22.60;93.30;;;;;;5030541;28;19917;-77
2022/07/06 13:27:13;;;;;;;;;;;22.50;94.20;;;;;;5032363;28;20536;-79
2022/07/06 13:29:39;;;;;;;;;;;22.50;94.60;;;;;;5029451;28;19964;-79
2022/07/06 13:32:05;;;;;;;;;;;22.30;94.10;;;;;;5023320;28;19972;-78
2022/07/06 13:34:31;;;;;;;;;;;22.20;93.50;;;;;;5031098;28;19928;-79
2022/07/06 13:36:56;;;;;;;;;;;22.20;96.20;;;;;;5031307;28;20261;-76
2022/07/06 13:39:23;;;;;;;;;;;22.00;93.70;;;;;;5033911;28;20502;-74
2022/07/06 13:41:49;;;;;;;;;;;21.90;94.90;;;;;;5030388;28;19921;-77
2022/07/06 13:44:15;;;;;;;;;;;21.70;93.80;;;;;;5035572;28;20075;-77
2022/07/06 13:46:42;;;;;;;;;;;21.60;95.50;;;;;;5034639;28;19924;-76
2022/07/06 13:49:08;;;;;;;;;;;21.30;94.60;;;;;;5034575;28;19927;-75
2022/07/06 13:51:33;;;;;;;;;;;21.30;95.80;;;;;;5033241;28;19917;-76
2022/07/06 13:53:59;;;;;;;;;;;21.20;95.60;;;;;;5032590;28;20007;-77
2022/07/06 13:56:25;;;;;;;;;;;21.10;95.60;;;;;;5031757;28;19921;-77
2022/07/06 13:58:51;;;;;;;;;;;21.00;97.10;;;;;;5030115;28;19952;-79
2022/07/06 14:01:16;;;;;;;;;;;21.00;95.10;;;;;;5026631;28;20382;-77
2022/07/06 14:03:42;;;;;;;;;;;21.00;96.90;;;;;;5028048;28;19924;-76
2022/07/06 14:06:08;;;;;;;;;;;20.70;96.20;;;;;;5025246;28;20012;-77
2022/07/06 14:08:37;;;;;;;;;;;20.70;98.30;;;;;;5027965;28;19936;-77
2022/07/06 14:11:03;;;;;;;;;;;20.70;97.00;;;;;;5031030;28;19960;-76
2022/07/06 14:13:28;;;;;;;;;;;20.60;97.30;;;;;;5029529;28;19975;-78
2022/07/06 14:15:54;;;;;;;;;;;20.60;97.20;;;;;;5027578;28;19964;-80
2022/07/06 14:18:20;;;;;;;;;;;20.60;97.30;;;;;;5027956;28;19928;-74
2022/07/06 14:20:46;;;;;;;;;;;20.50;97.40;;;;;;5029346;28;19917;-74
2022/07/06 14:23:12;;;;;;;;;;;20.50;97.50;;;;;;5028076;28;20280;-74